ATG weather

Minhas Air Base
Kamra, Punjab, Pakistan

Public forecast

Using degrees Celsius for public forecast. Weather courtesy of forecast.io.

Closest aviation weather report (METAR) to Minhas Air Base

Report is more than 6 hours old.

Closest report is Benazir Bhutto International Airport, 38.0 nm (70.4 km) ESE. Retrieved 2019/12/28 11:00 UTC (2 months ago):

OPRN 281100Z 05004KT 1400 BR SCT100 11/08 Q1016 BECMG 1500 BR

Closest aviation forecast (TAF) to Minhas Air Base

Forecast is more than 12 hours old.

Closest forecast is Benazir Bhutto International Airport, 38.0 nm (70.4 km) ESE. Retrieved 2019/05/15 00:06 UTC (9 months ago):

TAF OPRN 152130Z 1600/1706 07010KT 7000 FEW040 SCT100 BECMG 1603/1612 23010G20KT SCT040 BECMG 1614/1616 03006KT CAVOK